Flight Track Log - Related Links

Times and Time Zones

All times are in EDT time to prevent confusion due to time zone crossing. See the EMD21 flight status page for this flight to view local times or setup timezone preferences in your user account.

Time Position Orientation Groundspeed Altitude Reporting Facility
EDT Latitude Longitude Course Direction KTS MPH feet Rate Location/Type
Sun 03:12:04 AM 34.9522 -95.7969 331° Northwest 166 191 3,100  Level Kansas City Center
Sun 03:12:36 AM 34.9789 -95.8119 335° Northwest 212 244 4,000 1,304 Climbing Fort Worth Center
Sun 03:13:36 AM 35.0147 -95.8392 328° Northwest 172 198 5,100 1,250 Climbing Fort Worth Center
Sun 03:14:36 AM 35.0547 -95.8689 329° Northwest 161 185 6,500 1,350 Climbing Fort Worth Center
Sun 03:15:36 AM 35.0883 -95.8936 329° Northwest 156 180 7,800 1,250 Climbing Fort Worth Center
Sun 03:16:36 AM 35.1222 -95.9211 326° Northwest 151 174 9,000 1,300 Climbing Fort Worth Center
Sun 03:17:00 AM 35.1382 -95.9643 331° Northwest  Level FlightAware Approximate
Sun 03:17:36 AM 35.1558 -95.9458 329° Northwest 151 174 10,400  Level Fort Worth Center
Sun 03:18:36 AM 35.1917 -95.9731 328° Northwest 151 174 11,400 800 Climbing Fort Worth Center
Sun 03:19:36 AM 35.2294 -95.9981 332° Northwest 151 174 12,000 300 Climbing Fort Worth Center
Sun 03:20:36 AM 35.2778 -96.0328 330° Northwest 173 199 12,000 100 Level Fort Worth Center
Sun 03:21:36 AM 35.3322 -96.0700 331° Northwest 199 229 12,200  Climbing Fort Worth Center
Sun 03:22:36 AM 35.3869 -96.1072 331° Northwest 213 245 12,000 -130 Descending Fort Worth Center
Sun 03:23:08 AM 35.4119 -96.1172 342° North 223 257 12,000  Level Kansas City Center
Sun 03:24:09 AM 35.4706 -96.1675 325° Northwest 217 250 12,000  Level Kansas City Center
Sun 03:25:08 AM 35.5222 -96.2036 330° Northwest 215 247 12,000  Level Kansas City Center
Sun 03:26:07 AM 35.5753 -96.2381 332° Northwest 215 247 12,000  Level Kansas City Center
Sun 03:27:10 AM 35.6272 -96.2783 328° Northwest 220 253 12,000  Level Kansas City Center
Sun 03:28:10 AM 35.6778 -96.3183 327° Northwest 217 250 12,000  Level Kansas City Center
Sun 03:29:10 AM 35.7306 -96.3533 332° Northwest 217 250 12,000  Level Kansas City Center
Sun 03:30:10 AM 35.7825 -96.3903 330° Northwest 217 250 12,000  Level Kansas City Center
Sun 03:31:10 AM 35.8328 -96.4314 326° Northwest 217 250 12,000  Level Kansas City Center
Sun 03:32:09 AM 35.8856 -96.4686 330° Northwest 218 251 12,000  Level Kansas City Center
Sun 03:33:08 AM 35.9383 -96.5036 332° Northwest 217 250 12,000  Level Kansas City Center
Sun 03:34:11 AM 35.9881 -96.5450 326° Northwest 216 249 12,000 -145 Level Kansas City Center
Sun 03:35:12 AM 36.0406 -96.5822 330° Northwest 217 250 11,700 -458 Descending Kansas City Center
Sun 03:36:09 AM 36.0928 -96.6186 331° Northwest 222 255 11,100 -750 Descending Kansas City Center
Sun 03:37:12 AM 36.1489 -96.6642 327° Northwest 234 269 10,200 -800 Descending Kansas City Center
Sun 03:38:09 AM 36.2086 -96.7028 332° Northwest 239 275 9,500 -857 Descending Kansas City Center
Sun 03:39:11 AM 36.2703 -96.7469 330° Northwest 244 281 8,500 -823 Descending Kansas City Center
Sun 03:40:13 AM 36.3225 -96.7917 325° Northwest 235 270 7,800 -843 Descending Kansas City Center
Sun 03:41:12 AM 36.3761 -96.8297 330° Northwest 226 260 6,800 -966 Descending Kansas City Center
Sun 03:42:11 AM 36.4297 -96.8706 329° Northwest 226 260 5,900 -793 Descending Kansas City Center
Sun 03:43:13 AM 36.4819 -96.9089 329° Northwest 222 255 5,200 -677 Descending Kansas City Center

Login

Don't have an account? Register now (free) for customized features, flight alerts, and more!